Conroe's Hourly Summary for Friday, May 11, 2018
Hour Temp
(f)
RH
(%)
Solar Rad.
(MJ/m2)
Rainfall
(in)
Wind
(mph)
5/11/2018 12:00 AM 67 69 0 0 0.11
5/11/2018 1:00 AM 66 77 0 0 0.01
5/11/2018 2:00 AM 63 83 0 0 0
5/11/2018 3:00 AM 62 88 0 0 0
5/11/2018 4:00 AM 62 89 0 0 0
5/11/2018 5:00 AM 62 88 0 0 0
5/11/2018 6:00 AM 62 89 0.03 0 0
5/11/2018 7:00 AM 66 80 0.4 0 0.24
5/11/2018 8:00 AM 73 73 1 0 2.39
5/11/2018 9:00 AM 77 61 1.78 0 3.9
5/11/2018 10:00 AM 78 54 1.31 0 2.69
5/11/2018 11:00 AM 82 45 2.96 0 4.87
5/11/2018 12:00 PM 83 46 2.03 0 2.74
5/11/2018 1:00 PM 85 39 3.37 0 4.04
5/11/2018 2:00 PM 85 35 2.79 0 4.87
5/11/2018 3:00 PM 86 36 2.42 0 5.01
5/11/2018 4:00 PM 85 40 2.04 0 5.37
5/11/2018 5:00 PM 83 43 1.37 0 5.93
5/11/2018 6:00 PM 81 53 0.47 0 5.31
5/11/2018 7:00 PM 78 59 0.09 0 5.55
5/11/2018 8:00 PM 76 67 0 0 4.29
5/11/2018 9:00 PM 74 73 0 0 3.58
5/11/2018 10:00 PM 73 79 0 0 2.95
5/11/2018 11:00 PM 72 82 0 0 1.36
Data Summary 74 64 22.06 0.00 2.72